createdAt,value
2019-05-23T00:00:25.001Z,0.00
2019-05-23T00:01:24.981Z,0.00
2019-05-23T00:02:24.994Z,0.00
2019-05-23T00:03:25.002Z,0.00
2019-05-23T00:04:24.956Z,0.00
2019-05-23T00:05:24.946Z,0.00
2019-05-23T00:06:24.937Z,0.00
2019-05-23T00:07:24.950Z,0.00
2019-05-23T00:08:24.912Z,0.00
2019-05-23T00:09:24.909Z,0.00
2019-05-23T00:10:24.896Z,0.00
2019-05-23T00:11:24.877Z,0.00
2019-05-23T00:12:24.872Z,0.00
2019-05-23T00:13:24.886Z,0.00
2019-05-23T00:14:24.858Z,0.00
2019-05-23T00:15:24.839Z,0.00
2019-05-23T00:16:24.818Z,0.00
2019-05-23T00:17:24.816Z,0.00
2019-05-23T00:18:24.817Z,0.00
2019-05-23T00:19:24.796Z,0.00
2019-05-23T00:20:24.812Z,0.00
2019-05-23T00:21:24.786Z,0.00
2019-05-23T00:22:24.764Z,0.00
2019-05-23T00:23:24.764Z,0.00
2019-05-23T00:24:24.742Z,0.00
2019-05-23T00:25:24.740Z,0.00
2019-05-23T00:26:24.713Z,0.00
2019-05-23T00:27:24.722Z,0.00
2019-05-23T00:28:24.710Z,0.00
2019-05-23T00:29:24.687Z,0.00
2019-05-23T00:30:24.699Z,0.00
2019-05-23T00:31:24.672Z,0.00
2019-05-23T00:32:24.657Z,0.00
2019-05-23T00:33:24.691Z,0.00
2019-05-23T00:34:24.633Z,0.00
2019-05-23T00:35:24.650Z,0.00
2019-05-23T00:36:24.691Z,0.00
2019-05-23T00:37:24.634Z,0.00
2019-05-23T00:38:24.586Z,0.00
2019-05-23T00:39:24.594Z,0.00
2019-05-23T00:40:24.610Z,0.00
2019-05-23T00:41:24.577Z,0.00
2019-05-23T00:42:24.549Z,0.00
2019-05-23T00:43:24.597Z,0.00
2019-05-23T00:44:24.533Z,0.00
2019-05-23T00:45:24.532Z,0.00
2019-05-23T00:46:24.513Z,0.00
2019-05-23T00:47:24.495Z,0.00
2019-05-23T00:48:24.504Z,0.00
2019-05-23T00:49:24.495Z,0.00
2019-05-23T00:50:24.455Z,0.00
2019-05-23T00:51:24.456Z,0.00
2019-05-23T00:52:24.436Z,0.00
2019-05-23T00:53:24.440Z,0.00
2019-05-23T00:54:24.435Z,0.00
2019-05-23T00:55:24.434Z,0.00
2019-05-23T00:56:24.402Z,0.00
2019-05-23T00:57:24.400Z,0.00
2019-05-23T00:58:24.402Z,0.00
2019-05-23T00:59:27.600Z,0.00
2019-05-23T01:00:24.372Z,0.00
2019-05-23T01:01:24.344Z,0.00
2019-05-23T01:02:24.353Z,0.00
2019-05-23T01:03:24.334Z,0.00
2019-05-23T01:04:24.328Z,0.00
2019-05-23T01:05:24.324Z,0.00
2019-05-23T01:06:24.306Z,0.00
2019-05-23T01:07:24.278Z,0.00
2019-05-23T01:08:24.268Z,0.00
2019-05-23T01:09:24.254Z,0.00
2019-05-23T01:10:24.261Z,0.00
2019-05-23T01:11:24.234Z,0.00
2019-05-23T01:12:24.222Z,0.00
2019-05-23T01:13:24.210Z,0.00
2019-05-23T01:14:24.214Z,0.00
2019-05-23T01:15:24.206Z,0.00
2019-05-23T01:16:24.198Z,0.00
2019-05-23T01:17:24.168Z,0.00
2019-05-23T01:18:24.229Z,0.00
2019-05-23T01:19:24.164Z,0.00
2019-05-23T01:20:24.150Z,0.00
2019-05-23T01:21:24.188Z,0.00
2019-05-23T01:22:24.138Z,0.00
2019-05-23T01:23:24.107Z,0.00
2019-05-23T01:24:24.093Z,0.00
2019-05-23T01:25:24.105Z,0.00
2019-05-23T01:26:24.089Z,0.00
2019-05-23T01:27:24.062Z,0.00
2019-05-23T01:28:24.059Z,0.00
2019-05-23T01:29:24.063Z,0.00
2019-05-23T01:30:24.044Z,0.00
2019-05-23T01:31:24.034Z,0.00
2019-05-23T01:32:24.009Z,0.00
2019-05-23T01:33:23.997Z,0.00
2019-05-23T01:34:23.984Z,0.00
2019-05-23T01:35:23.992Z,0.00
2019-05-23T01:36:24.001Z,0.00
2019-05-23T01:37:23.951Z,0.00
2019-05-23T01:38:23.946Z,0.00
2019-05-23T01:39:23.931Z,0.00
2019-05-23T01:40:23.936Z,0.00
2019-05-23T01:41:23.916Z,0.00
2019-05-23T01:42:23.919Z,0.00
2019-05-23T01:43:23.897Z,0.00
2019-05-23T01:44:23.896Z,0.00
2019-05-23T01:45:23.900Z,0.00
2019-05-23T01:46:23.863Z,0.00
2019-05-23T01:47:23.853Z,0.00
2019-05-23T01:48:23.840Z,0.00
2019-05-23T01:49:23.820Z,0.00
2019-05-23T01:50:23.829Z,0.00
2019-05-23T01:51:23.802Z,0.00
2019-05-23T01:52:23.795Z,0.00
2019-05-23T01:53:23.779Z,0.00
2019-05-23T01:54:23.779Z,0.00
2019-05-23T01:55:23.781Z,0.00
2019-05-23T01:56:23.751Z,0.00
2019-05-23T01:57:23.746Z,0.00
2019-05-23T01:58:23.741Z,0.00
2019-05-23T01:59:23.712Z,0.00
2019-05-23T02:00:23.729Z,0.00
2019-05-23T02:01:23.694Z,0.00
2019-05-23T02:02:23.707Z,0.00
2019-05-23T02:03:23.679Z,0.00
2019-05-23T02:04:23.663Z,0.00
2019-05-23T02:05:23.677Z,0.00
2019-05-23T02:06:23.645Z,0.00
2019-05-23T02:07:23.639Z,0.00
2019-05-23T02:08:23.615Z,0.00
2019-05-23T02:09:23.620Z,0.00
2019-05-23T02:10:23.624Z,0.00
2019-05-23T02:11:23.604Z,0.00
2019-05-23T02:12:23.593Z,0.00
2019-05-23T02:13:23.558Z,0.00
2019-05-23T02:14:23.573Z,0.00
2019-05-23T02:15:23.551Z,0.00
2019-05-23T02:16:23.542Z,0.00
2019-05-23T02:17:23.520Z,0.00
2019-05-23T02:18:23.516Z,0.00
2019-05-23T02:19:23.508Z,4.00
2019-05-23T02:20:23.498Z,4.00
2019-05-23T02:21:23.482Z,0.00
2019-05-23T02:22:23.465Z,0.00
2019-05-23T02:23:23.463Z,4.00
2019-05-23T02:24:23.440Z,4.00
2019-05-23T02:25:23.456Z,4.00
2019-05-23T02:26:23.429Z,4.00
2019-05-23T02:27:23.414Z,8.00
2019-05-23T02:28:23.404Z,8.00
2019-05-23T02:29:23.392Z,8.00
2019-05-23T02:30:33.722Z,8.00
2019-05-23T02:31:24.383Z,8.00
2019-05-23T02:32:23.374Z,12.00
2019-05-23T02:33:23.353Z,12.00
2019-05-23T02:34:23.333Z,12.00
2019-05-23T02:35:23.336Z,16.00
2019-05-23T02:36:23.322Z,20.00
2019-05-23T02:37:23.299Z,20.00
2019-05-23T02:38:23.293Z,24.00
2019-05-23T02:39:23.290Z,24.00
2019-05-23T02:40:23.275Z,28.00
2019-05-23T02:41:23.283Z,28.00
2019-05-23T02:42:23.247Z,36.00
2019-05-23T02:43:23.238Z,36.00
2019-05-23T02:44:23.224Z,40.00
2019-05-23T02:45:23.225Z,44.00
2019-05-23T02:46:23.219Z,52.00
2019-05-23T02:47:23.190Z,56.00
2019-05-23T02:48:23.192Z,60.00
2019-05-23T02:49:23.176Z,68.00
2019-05-23T02:50:23.170Z,76.00
2019-05-23T02:51:23.168Z,84.00
2019-05-23T02:52:23.149Z,88.00
2019-05-23T02:53:23.122Z,96.00
2019-05-23T02:54:23.131Z,104.00
2019-05-23T02:55:23.115Z,112.00
2019-05-23T02:56:23.116Z,124.00
2019-05-23T02:57:23.110Z,132.00
2019-05-23T02:58:23.080Z,144.00
2019-05-23T02:59:23.079Z,156.00
2019-05-23T03:00:23.081Z,172.00
2019-05-23T03:01:23.065Z,180.00
2019-05-23T03:02:23.041Z,196.00
2019-05-23T03:03:23.022Z,212.00
2019-05-23T03:04:23.005Z,228.00
2019-05-23T03:05:23.004Z,240.00
2019-05-23T03:06:23.024Z,256.00
2019-05-23T03:07:22.995Z,268.00
2019-05-23T03:08:22.977Z,284.00
2019-05-23T03:09:22.951Z,296.00
2019-05-23T03:10:22.942Z,312.00
2019-05-23T03:11:22.939Z,332.00
2019-05-23T03:12:25.297Z,348.00
2019-05-23T03:13:22.904Z,372.00
2019-05-23T03:14:22.956Z,396.00
2019-05-23T03:15:22.882Z,420.00
2019-05-23T03:16:22.870Z,448.00
2019-05-23T03:17:22.883Z,480.00
2019-05-23T03:18:22.870Z,516.00
2019-05-23T03:19:22.840Z,552.00
2019-05-23T03:20:22.837Z,592.00
2019-05-23T03:21:22.816Z,612.00
2019-05-23T03:22:22.837Z,656.00
2019-05-23T03:23:22.798Z,692.00
2019-05-23T03:24:22.789Z,732.00
2019-05-23T03:25:22.776Z,764.00
2019-05-23T03:26:22.794Z,800.00
2019-05-23T03:27:22.784Z,744.00
2019-05-23T03:28:22.760Z,868.00
2019-05-23T03:29:22.737Z,940.00
2019-05-23T03:30:22.765Z,996.00
2019-05-23T03:31:29.514Z,1048.00
2019-05-23T03:32:23.792Z,1092.00
2019-05-23T03:33:22.704Z,1128.00
2019-05-23T03:34:22.829Z,1112.00
2019-05-23T03:35:22.693Z,1240.00
2019-05-23T03:36:22.682Z,1284.00
2019-05-23T03:37:22.648Z,1328.00
2019-05-23T03:38:22.657Z,1376.00
2019-05-23T03:39:22.624Z,1424.00
2019-05-23T03:40:22.624Z,1452.00
2019-05-23T03:41:22.610Z,1500.00
2019-05-23T03:42:22.604Z,1552.00
2019-05-23T03:43:22.622Z,1624.00
2019-05-23T03:44:22.577Z,1724.00
2019-05-23T03:45:22.568Z,1808.00
2019-05-23T03:46:22.559Z,1884.00
2019-05-23T03:47:22.543Z,1888.00
2019-05-23T03:48:22.553Z,1980.00
2019-05-23T03:49:22.553Z,2028.00
2019-05-23T03:50:22.517Z,2096.00
2019-05-23T03:51:22.497Z,2160.00
2019-05-23T03:52:22.509Z,2248.00
2019-05-23T03:53:22.523Z,2264.00
2019-05-23T03:54:22.464Z,2300.00
2019-05-23T03:55:22.465Z,2328.00
2019-05-23T03:56:22.444Z,2328.00
2019-05-23T03:57:25.594Z,2348.00
2019-05-23T03:58:22.450Z,2324.00
2019-05-23T03:59:22.414Z,2304.00
2019-05-23T04:00:22.406Z,2284.00
2019-05-23T04:01:22.403Z,2284.00
2019-05-23T04:02:22.385Z,2296.00
2019-05-23T04:03:22.409Z,2272.00
2019-05-23T04:04:22.355Z,2272.00
2019-05-23T04:05:22.374Z,2280.00
2019-05-23T04:06:22.336Z,2276.00
2019-05-23T04:07:22.328Z,2280.00
2019-05-23T04:08:22.350Z,2280.00
2019-05-23T04:09:22.306Z,2260.00
2019-05-23T04:10:22.293Z,2256.00
2019-05-23T04:11:22.307Z,2264.00
2019-05-23T04:12:22.300Z,2276.00
2019-05-23T04:13:22.292Z,2336.00
2019-05-23T04:14:22.257Z,2384.00
2019-05-23T04:15:22.242Z,2412.00
2019-05-23T04:16:22.228Z,2420.00
2019-05-23T04:17:22.241Z,2440.00
2019-05-23T04:18:22.204Z,2448.00
2019-05-23T04:19:22.219Z,2464.00
2019-05-23T04:20:22.191Z,2468.00
2019-05-23T04:21:22.170Z,2488.00
2019-05-23T04:22:22.171Z,2500.00
2019-05-23T04:23:22.170Z,2516.00
2019-05-23T04:24:22.157Z,2520.00
2019-05-23T04:25:22.137Z,2536.00
2019-05-23T04:26:22.126Z,2556.00
2019-05-23T04:27:22.121Z,2572.00
2019-05-23T04:28:22.101Z,2600.00
2019-05-23T04:29:22.123Z,2636.00
2019-05-23T04:30:22.086Z,2644.00
2019-05-23T04:31:22.070Z,2676.00
2019-05-23T04:32:22.089Z,2740.00
2019-05-23T04:33:22.061Z,2788.00
2019-05-23T04:34:22.057Z,2864.00
2019-05-23T04:35:22.036Z,2896.00
2019-05-23T04:36:22.043Z,2960.00
2019-05-23T04:37:22.049Z,3048.00
2019-05-23T04:38:22.004Z,3136.00
2019-05-23T04:39:22.020Z,3212.00
2019-05-23T04:40:22.073Z,3208.00
2019-05-23T04:41:21.992Z,3332.00
2019-05-23T04:42:21.951Z,3544.00
2019-05-23T04:43:21.963Z,3656.00
2019-05-23T04:44:21.955Z,3708.00
2019-05-23T04:45:21.929Z,3836.00
2019-05-23T04:46:21.907Z,3792.00
2019-05-23T04:47:21.902Z,3428.00
2019-05-23T04:48:21.888Z,3480.00
2019-05-23T04:49:21.904Z,3620.00
2019-05-23T04:50:21.881Z,4076.00
2019-05-23T04:51:21.892Z,8044.00
2019-05-23T04:52:21.846Z,8904.00
2019-05-23T04:53:21.841Z,9092.00
2019-05-23T04:54:21.837Z,9208.00
2019-05-23T04:55:21.821Z,9468.00
2019-05-23T04:56:21.810Z,9944.00
2019-05-23T04:57:21.806Z,10056.00
2019-05-23T04:58:21.804Z,9660.00
2019-05-23T04:59:21.785Z,9692.00
2019-05-23T05:00:21.756Z,10628.00
2019-05-23T05:01:21.756Z,10416.00
2019-05-23T05:02:26.510Z,10668.00
2019-05-23T05:03:22.734Z,11052.00
2019-05-23T05:04:21.740Z,11472.00
2019-05-23T05:05:21.706Z,12512.00
2019-05-23T05:06:21.696Z,13280.00
2019-05-23T05:07:21.696Z,13024.00
2019-05-23T05:08:21.669Z,13376.00
2019-05-23T05:09:21.691Z,13952.00
2019-05-23T05:10:21.668Z,14272.00
2019-05-23T05:11:21.643Z,14464.00
2019-05-23T05:12:21.643Z,14464.00
2019-05-23T05:13:21.625Z,14528.00
2019-05-23T05:14:21.626Z,15200.00
2019-05-23T05:15:21.603Z,15808.00
2019-05-23T05:16:21.590Z,16256.00
2019-05-23T05:17:21.596Z,15776.00
2019-05-23T05:18:21.587Z,14656.00
2019-05-23T05:19:21.610Z,13696.00
2019-05-23T05:20:21.555Z,16544.00
2019-05-23T05:21:21.535Z,16896.00
2019-05-23T05:22:21.546Z,16704.00
2019-05-23T05:23:21.509Z,17472.00
2019-05-23T05:24:21.506Z,17984.00
2019-05-23T05:25:21.514Z,18112.00
2019-05-23T05:26:21.485Z,19488.00
2019-05-23T05:27:21.477Z,21312.00
2019-05-23T05:28:21.476Z,21152.00
2019-05-23T05:29:21.447Z,20672.00
2019-05-23T05:30:21.455Z,21088.00
2019-05-23T05:31:21.429Z,21120.00
2019-05-23T05:32:21.428Z,20480.00
2019-05-23T05:33:21.411Z,20672.00
2019-05-23T05:34:21.395Z,21088.00
2019-05-23T05:35:21.401Z,21856.00
2019-05-23T05:36:21.374Z,23488.00
2019-05-23T05:37:21.363Z,23680.00
2019-05-23T05:38:21.357Z,23776.00
2019-05-23T05:39:21.349Z,24224.00
2019-05-23T05:40:21.421Z,25536.00
2019-05-23T05:41:21.325Z,26624.00
2019-05-23T05:42:21.319Z,26656.00
2019-05-23T05:43:21.301Z,26144.00
2019-05-23T05:44:21.509Z,25952.00
2019-05-23T05:45:21.305Z,26304.00
2019-05-23T05:46:21.297Z,26560.00
2019-05-23T05:47:21.255Z,25952.00
2019-05-23T05:48:21.244Z,25344.00
2019-05-23T05:49:21.238Z,27232.00
2019-05-23T05:50:21.251Z,28768.00
2019-05-23T05:51:21.234Z,22816.00
2019-05-23T05:52:21.201Z,24096.00
2019-05-23T05:53:21.190Z,25504.00
2019-05-23T05:54:21.178Z,25760.00
2019-05-23T05:55:21.195Z,25632.00
2019-05-23T05:56:21.163Z,26592.00
2019-05-23T05:57:21.169Z,28320.00
2019-05-23T05:58:21.135Z,24000.00
2019-05-23T05:59:21.125Z,26336.00
2019-05-23T06:00:21.151Z,29120.00
2019-05-23T06:01:33.433Z,29824.00
2019-05-23T06:02:22.107Z,29728.00
2019-05-23T06:03:21.123Z,29408.00
2019-05-23T06:04:21.078Z,31520.00
2019-05-23T06:05:21.071Z,31904.00
2019-05-23T06:06:21.098Z,32448.00
2019-05-23T06:07:21.039Z,32288.00
2019-05-23T06:08:21.030Z,32064.00
2019-05-23T06:09:21.020Z,33120.00
2019-05-23T06:10:21.018Z,30528.00
2019-05-23T06:11:21.008Z,29504.00
2019-05-23T06:12:20.996Z,31680.00
2019-05-23T06:13:20.995Z,35680.00
2019-05-23T06:14:20.973Z,39232.00
2019-05-23T06:15:20.951Z,38208.00
2019-05-23T06:16:20.958Z,36832.00
2019-05-23T06:17:20.973Z,36160.00
2019-05-23T06:18:20.916Z,39232.00
2019-05-23T06:19:20.916Z,35712.00
2019-05-23T06:20:20.906Z,34080.00
2019-05-23T06:21:20.906Z,33024.00
2019-05-23T06:22:20.919Z,37824.00
2019-05-23T06:23:20.865Z,41024.00
2019-05-23T06:24:39.035Z,38016.00
2019-05-23T06:25:21.862Z,40640.00
2019-05-23T06:26:20.855Z,42336.00
2019-05-23T06:27:20.830Z,39264.00
2019-05-23T06:28:20.807Z,43104.00
2019-05-23T06:29:20.798Z,43136.00
2019-05-23T06:30:20.795Z,43296.00
2019-05-23T06:31:20.798Z,43328.00
2019-05-23T06:32:20.771Z,42976.00
2019-05-23T06:33:23.691Z,44320.00
2019-05-23T06:34:20.750Z,44704.00
2019-05-23T06:35:20.735Z,47744.00
2019-05-23T06:36:20.745Z,49440.00
2019-05-23T06:37:20.715Z,50272.00
2019-05-23T06:38:20.705Z,47040.00
2019-05-23T06:39:20.717Z,33472.00
2019-05-23T06:40:20.686Z,43968.00
2019-05-23T06:41:20.690Z,15944.00
2019-05-23T06:42:20.670Z,45184.00
2019-05-23T06:43:20.653Z,44160.00
2019-05-23T06:44:20.637Z,41856.00
2019-05-23T06:45:20.650Z,39744.00
2019-05-23T06:46:20.651Z,41184.00
2019-05-23T06:47:20.629Z,43264.00
2019-05-23T06:48:20.599Z,42848.00
2019-05-23T06:49:20.608Z,43520.00
2019-05-23T06:50:20.577Z,44736.00
2019-05-23T06:51:20.577Z,48128.00
2019-05-23T06:52:20.566Z,47200.00
2019-05-23T06:53:20.545Z,28640.00
2019-05-23T06:54:20.533Z,42688.00
2019-05-23T06:55:20.544Z,39232.00
2019-05-23T06:56:20.534Z,51232.00
2019-05-23T06:57:20.516Z,47744.00
2019-05-23T06:58:20.853Z,47776.00
2019-05-23T06:59:20.485Z,48704.00
2019-05-23T07:00:20.475Z,46816.00
2019-05-23T07:01:20.504Z,46432.00
2019-05-23T07:02:20.450Z,48032.00
2019-05-23T07:03:20.449Z,49472.00
2019-05-23T07:04:20.427Z,48480.00
2019-05-23T07:05:20.419Z,42560.00
2019-05-23T07:06:20.431Z,45664.00
2019-05-23T07:07:20.418Z,47200.00
2019-05-23T07:08:20.400Z,48768.00
2019-05-23T07:09:20.433Z,42208.00
2019-05-23T07:10:20.362Z,52128.00
2019-05-23T07:11:20.361Z,52512.00
2019-05-23T07:12:20.359Z,53120.00
2019-05-23T07:13:20.334Z,52224.00
2019-05-23T07:14:20.321Z,51744.00
2019-05-23T07:15:20.314Z,55328.00
2019-05-23T07:16:20.303Z,59296.00
2019-05-23T07:17:20.305Z,61760.00
2019-05-23T07:18:20.278Z,60672.00
2019-05-23T07:19:20.271Z,60512.00
2019-05-23T07:20:20.260Z,61312.00
2019-05-23T07:21:20.250Z,59488.00
2019-05-23T07:22:20.258Z,61632.00
2019-05-23T07:23:20.230Z,62880.00
2019-05-23T07:24:20.216Z,57472.00
2019-05-23T07:25:20.203Z,60096.00
2019-05-23T07:26:20.195Z,58208.00
2019-05-23T07:27:20.365Z,56544.00
2019-05-23T07:28:20.178Z,55040.00
2019-05-23T07:29:20.179Z,48192.00
2019-05-23T07:30:20.184Z,46240.00
2019-05-23T07:31:20.146Z,45600.00
2019-05-23T07:32:20.134Z,49184.00
2019-05-23T07:33:20.142Z,47968.00
2019-05-23T07:34:20.113Z,49504.00
2019-05-23T07:35:20.105Z,51328.00
2019-05-23T07:36:20.088Z,52992.00
2019-05-23T07:37:20.080Z,54528.00
2019-05-23T07:38:20.098Z,57664.00
2019-05-23T07:39:20.062Z,59872.00
2019-05-23T07:40:20.054Z,63456.00
2019-05-23T07:41:20.060Z,63392.00
2019-05-23T07:42:20.026Z,60576.00
2019-05-23T07:43:20.036Z,56704.00
2019-05-23T07:44:20.006Z,53472.00
2019-05-23T07:45:19.999Z,52160.00
2019-05-23T07:46:19.983Z,55296.00
2019-05-23T07:47:20.038Z,60000.00
2019-05-23T07:48:19.993Z,64096.00
2019-05-23T07:49:20.025Z,66752.00
2019-05-23T07:50:19.950Z,72224.00
2019-05-23T07:51:19.958Z,73088.00
2019-05-23T07:52:19.931Z,69504.00
2019-05-23T07:53:19.947Z,72832.00
2019-05-23T07:54:19.903Z,69152.00
2019-05-23T07:55:19.893Z,52992.00
2019-05-23T07:56:19.885Z,55904.00
2019-05-23T07:57:19.873Z,63520.00
2019-05-23T07:58:19.880Z,57984.00
2019-05-23T07:59:19.855Z,65984.00
2019-05-23T08:00:19.889Z,67840.00
2019-05-23T08:01:19.832Z,76096.00
2019-05-23T08:02:19.859Z,79328.00
2019-05-23T08:03:19.830Z,76928.00
2019-05-23T08:04:22.289Z,45728.00
2019-05-23T08:05:19.799Z,78336.00
2019-05-23T08:06:19.776Z,67840.00
2019-05-23T08:07:19.769Z,71040.00
2019-05-23T08:08:19.779Z,17600.00
2019-05-23T08:09:19.741Z,16400.00
2019-05-23T08:10:33.131Z,13876.00
2019-05-23T08:11:20.733Z,20352.00
2019-05-23T08:12:19.713Z,60288.00
2019-05-23T08:13:19.719Z,10320.00
2019-05-23T08:14:19.691Z,11700.00
2019-05-23T08:15:19.685Z,12552.00
2019-05-23T08:16:19.682Z,14268.00
2019-05-23T08:17:19.661Z,15040.00
2019-05-23T08:18:19.683Z,21088.00
2019-05-23T08:19:19.922Z,22176.00
2019-05-23T08:20:19.634Z,15680.00
2019-05-23T08:21:19.621Z,12312.00
2019-05-23T08:22:19.612Z,20928.00
2019-05-23T08:23:19.630Z,20416.00
2019-05-23T08:24:19.596Z,13548.00
2019-05-23T08:25:19.592Z,14592.00
2019-05-23T08:26:19.565Z,14016.00
2019-05-23T08:27:19.567Z,20800.00
2019-05-23T08:28:19.567Z,10308.00
2019-05-23T08:29:25.991Z,11104.00
2019-05-23T08:30:20.526Z,11524.00
2019-05-23T08:31:19.524Z,20224.00
2019-05-23T08:32:19.514Z,10428.00
2019-05-23T08:33:19.511Z,10732.00
2019-05-23T08:34:19.491Z,10876.00
2019-05-23T08:35:19.479Z,11792.00
2019-05-23T08:36:19.489Z,10412.00
2019-05-23T08:37:19.453Z,9880.00
2019-05-23T08:38:19.466Z,10604.00
2019-05-23T08:39:19.426Z,11488.00
2019-05-23T08:40:19.418Z,12988.00
2019-05-23T08:41:19.407Z,19392.00
2019-05-23T08:42:19.395Z,11860.00
2019-05-23T08:43:19.504Z,10132.00
2019-05-23T08:44:19.376Z,9828.00
2019-05-23T08:45:19.360Z,9828.00
2019-05-23T08:46:19.349Z,9696.00
2019-05-23T08:47:19.344Z,9860.00
2019-05-23T08:48:19.343Z,10188.00
2019-05-23T08:49:19.321Z,12160.00
2019-05-23T08:50:19.335Z,10420.00
2019-05-23T08:51:19.322Z,10680.00
2019-05-23T08:52:19.285Z,12428.00
2019-05-23T08:53:19.289Z,10888.00
2019-05-23T08:54:19.273Z,11628.00
2019-05-23T08:55:19.257Z,11484.00
2019-05-23T08:56:19.879Z,12076.00
2019-05-23T08:57:19.237Z,15936.00
2019-05-23T08:58:19.290Z,12700.00
2019-05-23T08:59:19.215Z,13068.00
2019-05-23T09:00:19.215Z,12708.00
2019-05-23T09:01:19.195Z,12568.00
2019-05-23T09:02:19.183Z,11696.00
2019-05-23T09:03:19.182Z,17824.00
2019-05-23T09:04:19.157Z,11832.00
2019-05-23T09:05:19.167Z,12532.00
2019-05-23T09:06:19.200Z,12024.00
2019-05-23T09:07:19.133Z,12304.00
2019-05-23T09:08:19.135Z,12480.00
2019-05-23T09:09:29.117Z,12548.00
2019-05-23T09:10:20.187Z,12560.00
2019-05-23T09:11:19.138Z,12632.00
2019-05-23T09:12:19.164Z,12564.00
2019-05-23T09:13:19.079Z,12584.00
2019-05-23T09:14:19.062Z,12700.00
2019-05-23T09:15:19.052Z,13180.00
2019-05-23T09:16:19.030Z,12772.00
2019-05-23T09:17:19.029Z,59712.00
2019-05-23T09:18:19.054Z,14468.00
2019-05-23T09:19:19.005Z,60224.00
2019-05-23T09:20:18.993Z,14472.00
2019-05-23T09:21:18.976Z,17568.00
2019-05-23T09:22:18.970Z,19808.00
2019-05-23T09:23:18.973Z,16320.00
2019-05-23T09:24:18.948Z,14424.00
2019-05-23T09:25:18.977Z,12784.00
2019-05-23T09:26:18.939Z,12404.00
2019-05-23T09:27:18.918Z,12708.00
2019-05-23T09:28:18.918Z,13652.00
2019-05-23T09:29:18.899Z,12920.00
2019-05-23T09:30:18.894Z,12884.00
2019-05-23T09:31:18.883Z,13708.00
2019-05-23T09:32:19.187Z,12984.00
2019-05-23T09:33:18.868Z,12076.00
2019-05-23T09:34:18.838Z,11984.00
2019-05-23T09:35:21.455Z,12148.00
2019-05-23T09:36:18.816Z,10596.00
2019-05-23T09:37:18.810Z,10788.00
2019-05-23T09:38:18.818Z,10736.00
2019-05-23T09:39:18.797Z,10480.00
2019-05-23T09:40:18.779Z,10220.00
2019-05-23T09:41:18.765Z,11036.00
2019-05-23T09:42:18.763Z,10176.00
2019-05-23T09:43:18.765Z,10008.00
2019-05-23T09:44:18.732Z,10096.00
2019-05-23T09:45:18.722Z,10280.00
2019-05-23T09:46:18.735Z,10100.00
2019-05-23T09:47:18.710Z,9780.00
2019-05-23T09:48:18.725Z,10088.00
2019-05-23T09:49:18.711Z,9800.00
2019-05-23T09:50:18.673Z,9952.00
2019-05-23T09:51:18.804Z,10052.00
2019-05-23T09:52:18.652Z,9936.00
2019-05-23T09:53:18.668Z,10704.00
2019-05-23T09:54:18.648Z,10040.00
2019-05-23T09:55:18.618Z,9940.00
2019-05-23T09:56:18.609Z,10140.00
2019-05-23T09:57:18.601Z,10120.00
2019-05-23T09:58:18.603Z,10880.00
2019-05-23T09:59:18.590Z,11508.00
2019-05-23T10:00:18.630Z,14416.00
2019-05-23T10:01:18.789Z,19564.00
2019-05-23T10:02:18.552Z,10088.00
2019-05-23T10:03:18.558Z,10136.00
2019-05-23T10:04:18.532Z,10376.00
2019-05-23T10:05:18.556Z,19936.00
2019-05-23T10:06:18.504Z,16428.00
2019-05-23T10:07:18.538Z,24928.00
2019-05-23T10:08:18.512Z,15580.00
2019-05-23T10:09:18.488Z,9948.00
2019-05-23T10:10:18.470Z,34464.00
2019-05-23T10:11:18.471Z,11560.00
2019-05-23T10:12:22.161Z,25312.00
2019-05-23T10:13:18.444Z,15400.00
2019-05-23T10:14:18.414Z,26976.00
2019-05-23T10:15:18.404Z,36576.00
2019-05-23T10:16:18.398Z,18528.00
2019-05-23T10:17:18.390Z,27552.00
2019-05-23T10:18:18.389Z,53696.00
2019-05-23T10:19:18.362Z,101184.00
2019-05-23T10:20:18.351Z,52576.00
2019-05-23T10:21:18.345Z,76256.00
2019-05-23T10:22:18.331Z,84736.00
2019-05-23T10:23:18.415Z,14560.00
2019-05-23T10:24:18.308Z,95520.00
2019-05-23T10:25:18.296Z,73408.00
2019-05-23T10:26:18.288Z,67488.00
2019-05-23T10:27:18.299Z,62752.00
2019-05-23T10:28:18.299Z,46880.00
2019-05-23T10:29:18.269Z,64992.00
2019-05-23T10:30:18.262Z,44480.00
2019-05-23T10:31:18.296Z,62112.00
2019-05-23T10:32:18.235Z,73856.00
2019-05-23T10:33:18.256Z,73888.00
2019-05-23T10:34:18.242Z,60576.00
2019-05-23T10:35:18.203Z,26592.00
2019-05-23T10:36:18.194Z,64064.00
2019-05-23T10:37:18.213Z,63904.00
2019-05-23T10:38:18.205Z,50272.00
2019-05-23T10:39:18.241Z,21792.00
2019-05-23T10:40:18.137Z,27488.00
2019-05-23T10:41:18.134Z,23200.00
2019-05-23T10:42:18.178Z,61696.00
2019-05-23T10:43:18.146Z,53952.00
2019-05-23T10:44:18.094Z,32128.00
2019-05-23T10:45:18.184Z,64864.00
2019-05-23T10:46:18.083Z,57120.00
2019-05-23T10:47:18.085Z,54144.00
2019-05-23T10:48:18.084Z,36672.00
2019-05-23T10:49:18.063Z,22880.00
2019-05-23T10:50:18.039Z,22464.00
2019-05-23T10:51:18.024Z,22816.00
2019-05-23T10:52:18.028Z,23488.00
2019-05-23T10:53:18.034Z,23360.00
2019-05-23T10:54:18.163Z,36352.00
2019-05-23T10:55:18.009Z,25216.00
2019-05-23T10:56:20.537Z,27040.00
2019-05-23T10:57:17.971Z,26720.00
2019-05-23T10:58:18.016Z,50752.00
2019-05-23T10:59:17.949Z,28896.00
2019-05-23T11:00:17.948Z,61984.00
2019-05-23T11:01:17.947Z,61952.00
2019-05-23T11:02:17.903Z,73472.00
2019-05-23T11:03:17.924Z,72576.00
2019-05-23T11:04:17.907Z,71200.00
2019-05-23T11:05:17.877Z,65696.00
2019-05-23T11:06:17.865Z,62656.00
2019-05-23T11:07:17.857Z,61824.00
2019-05-23T11:08:17.875Z,64928.00
2019-05-23T11:09:17.857Z,66400.00
2019-05-23T11:10:17.826Z,68128.00
2019-05-23T11:11:17.874Z,66336.00
2019-05-23T11:12:17.822Z,63680.00
2019-05-23T11:13:17.839Z,62144.00
2019-05-23T11:14:17.794Z,68544.00
2019-05-23T11:15:17.780Z,71776.00
2019-05-23T11:16:17.765Z,72192.00
2019-05-23T11:17:17.756Z,75360.00
2019-05-23T11:18:17.792Z,74688.00
2019-05-23T11:19:17.742Z,72544.00
2019-05-23T11:20:17.719Z,73856.00
2019-05-23T11:21:17.720Z,74400.00
2019-05-23T11:22:17.702Z,76608.00
2019-05-23T11:23:17.735Z,78080.00
2019-05-23T11:24:17.734Z,76864.00
2019-05-23T11:25:17.677Z,77632.00
2019-05-23T11:26:17.661Z,72128.00
2019-05-23T11:27:17.664Z,70656.00
2019-05-23T11:28:17.657Z,72032.00
2019-05-23T11:29:17.639Z,74432.00
2019-05-23T11:30:17.640Z,81696.00
2019-05-23T11:31:17.612Z,83104.00
2019-05-23T11:32:20.329Z,80768.00
2019-05-23T11:33:17.651Z,75776.00
2019-05-23T11:34:17.584Z,73984.00
2019-05-23T11:35:17.573Z,74880.00
2019-05-23T11:36:33.937Z,77696.00
2019-05-23T11:37:18.547Z,79776.00
2019-05-23T11:38:17.554Z,81312.00
2019-05-23T11:39:17.546Z,79328.00
2019-05-23T11:40:17.540Z,78048.00
2019-05-23T11:41:17.522Z,78816.00
2019-05-23T11:42:17.524Z,79936.00
2019-05-23T11:43:17.533Z,81504.00
2019-05-23T11:44:17.499Z,80352.00
2019-05-23T11:45:17.483Z,79168.00
2019-05-23T11:46:17.468Z,79200.00
2019-05-23T11:47:17.464Z,78688.00
2019-05-23T11:48:17.465Z,79136.00
2019-05-23T11:49:17.444Z,81184.00
2019-05-23T11:50:17.425Z,78304.00
2019-05-23T11:51:17.434Z,73856.00
2019-05-23T11:52:17.426Z,75680.00
2019-05-23T11:53:17.425Z,76928.00
2019-05-23T11:54:17.377Z,73888.00
2019-05-23T11:55:17.368Z,71360.00
2019-05-23T11:56:17.358Z,69664.00
2019-05-23T11:57:17.366Z,70368.00
2019-05-23T11:58:17.373Z,67840.00
2019-05-23T11:59:17.362Z,27008.00
2019-05-23T12:00:17.317Z,37888.00
2019-05-23T12:01:20.843Z,35520.00
2019-05-23T12:02:17.310Z,26624.00
2019-05-23T12:03:17.318Z,66496.00
2019-05-23T12:04:17.319Z,67104.00
2019-05-23T12:05:17.302Z,66272.00
2019-05-23T12:06:17.272Z,66528.00
2019-05-23T12:07:17.274Z,64192.00
2019-05-23T12:08:17.261Z,61696.00
2019-05-23T12:09:17.277Z,60928.00